sensor_id;sensor_type;location;lat;lon;timestamp;P1;durP1;ratioP1;P2;durP2;ratioP2
26562;SDS011;14217;50.986;5.826;2022-07-29T00:00:15;1.85;;;0.60;;
26562;SDS011;14217;50.986;5.826;2022-07-29T00:05:17;1.55;;;0.60;;
26562;SDS011;14217;50.986;5.826;2022-07-29T00:10:19;1.65;;;0.70;;
26562;SDS011;14217;50.986;5.826;2022-07-29T00:15:21;1.83;;;0.60;;
26562;SDS011;14217;50.986;5.826;2022-07-29T00:20:24;2.53;;;0.50;;
26562;SDS011;14217;50.986;5.826;2022-07-29T00:25:26;2.50;;;0.60;;
26562;SDS011;14217;50.986;5.826;2022-07-29T00:30:28;4.20;;;0.60;;
26562;SDS011;14217;50.986;5.826;2022-07-29T00:35:30;0.85;;;0.60;;
26562;SDS011;14217;50.986;5.826;2022-07-29T00:40:47;0.65;;;0.57;;
26562;SDS011;14217;50.986;5.826;2022-07-29T00:45:49;2.22;;;0.60;;
26562;SDS011;14217;50.986;5.826;2022-07-29T00:50:51;0.95;;;0.40;;
26562;SDS011;14217;50.986;5.826;2022-07-29T00:55:54;0.98;;;0.57;;
26562;SDS011;14217;50.986;5.826;2022-07-29T01:00:57;4.60;;;0.45;;
26562;SDS011;14217;50.986;5.826;2022-07-29T01:05:59;0.60;;;0.43;;
26562;SDS011;14217;50.986;5.826;2022-07-29T01:11:02;2.25;;;0.57;;
26562;SDS011;14217;50.986;5.826;2022-07-29T01:16:07;0.57;;;0.30;;
26562;SDS011;14217;50.986;5.826;2022-07-29T01:21:37;2.08;;;0.50;;
26562;SDS011;14217;50.986;5.826;2022-07-29T01:27:03;0.50;;;0.20;;
26562;SDS011;14217;50.986;5.826;2022-07-29T01:32:31;0.77;;;0.40;;
26562;SDS011;14217;50.986;5.826;2022-07-29T01:42:49;1.38;;;0.60;;
26562;SDS011;14217;50.986;5.826;2022-07-29T01:53:35;1.58;;;0.32;;
26562;SDS011;14217;50.986;5.826;2022-07-29T01:58:44;0.73;;;0.50;;
26562;SDS011;14217;50.986;5.826;2022-07-29T02:03:47;0.98;;;0.52;;
26562;SDS011;14217;50.986;5.826;2022-07-29T02:08:51;0.73;;;0.35;;
26562;SDS011;14217;50.986;5.826;2022-07-29T02:13:54;4.55;;;0.63;;
26562;SDS011;14217;50.986;5.826;2022-07-29T02:19:00;0.70;;;0.38;;
26562;SDS011;14217;50.986;5.826;2022-07-29T02:24:04;1.20;;;0.50;;
26562;SDS011;14217;50.986;5.826;2022-07-29T02:29:06;1.95;;;0.40;;
26562;SDS011;14217;50.986;5.826;2022-07-29T02:34:10;1.05;;;0.55;;
26562;SDS011;14217;50.986;5.826;2022-07-29T02:39:19;0.60;;;0.40;;
26562;SDS011;14217;50.986;5.826;2022-07-29T02:44:24;0.65;;;0.30;;
26562;SDS011;14217;50.986;5.826;2022-07-29T02:49:48;1.35;;;0.63;;
26562;SDS011;14217;50.986;5.826;2022-07-29T02:55:02;1.65;;;0.35;;
26562;SDS011;14217;50.986;5.826;2022-07-29T03:00:16;2.17;;;0.40;;
26562;SDS011;14217;50.986;5.826;2022-07-29T03:05:19;0.75;;;0.50;;
26562;SDS011;14217;50.986;5.826;2022-07-29T03:10:23;1.48;;;0.40;;
26562;SDS011;14217;50.986;5.826;2022-07-29T03:15:26;2.83;;;0.63;;
26562;SDS011;14217;50.986;5.826;2022-07-29T03:20:29;1.65;;;0.52;;
26562;SDS011;14217;50.986;5.826;2022-07-29T03:25:31;0.95;;;0.47;;
26562;SDS011;14217;50.986;5.826;2022-07-29T03:30:33;1.67;;;0.47;;
26562;SDS011;14217;50.986;5.826;2022-07-29T03:35:35;0.20;;;0.20;;
26562;SDS011;14217;50.986;5.826;2022-07-29T03:40:46;0.85;;;0.60;;
26562;SDS011;14217;50.986;5.826;2022-07-29T03:45:52;0.43;;;0.40;;
26562;SDS011;14217;50.986;5.826;2022-07-29T03:50:56;0.50;;;0.50;;
26562;SDS011;14217;50.986;5.826;2022-07-29T03:55:58;0.50;;;0.40;;
26562;SDS011;14217;50.986;5.826;2022-07-29T04:01:01;5.97;;;0.50;;
26562;SDS011;14217;50.986;5.826;2022-07-29T04:06:04;0.63;;;0.45;;
26562;SDS011;14217;50.986;5.826;2022-07-29T04:11:07;0.73;;;0.28;;
26562;SDS011;14217;50.986;5.826;2022-07-29T04:16:10;1.40;;;0.50;;
26562;SDS011;14217;50.986;5.826;2022-07-29T04:21:12;0.35;;;0.30;;
26562;SDS011;14217;50.986;5.826;2022-07-29T04:26:14;0.65;;;0.55;;
26562;SDS011;14217;50.986;5.826;2022-07-29T04:31:16;0.63;;;0.63;;
26562;SDS011;14217;50.986;5.826;2022-07-29T04:36:25;1.85;;;0.50;;
26562;SDS011;14217;50.986;5.826;2022-07-29T04:41:29;1.88;;;0.63;;
26562;SDS011;14217;50.986;5.826;2022-07-29T04:46:33;2.35;;;0.35;;
26562;SDS011;14217;50.986;5.826;2022-07-29T04:51:37;0.75;;;0.22;;
26562;SDS011;14217;50.986;5.826;2022-07-29T04:56:39;0.60;;;0.43;;
26562;SDS011;14217;50.986;5.826;2022-07-29T05:01:41;0.57;;;0.50;;
26562;SDS011;14217;50.986;5.826;2022-07-29T05:06:43;1.25;;;0.40;;
26562;SDS011;14217;50.986;5.826;2022-07-29T05:11:45;2.75;;;0.60;;
26562;SDS011;14217;50.986;5.826;2022-07-29T05:16:47;1.58;;;0.70;;
26562;SDS011;14217;50.986;5.826;2022-07-29T05:21:52;1.35;;;0.55;;
26562;SDS011;14217;50.986;5.826;2022-07-29T05:26:54;0.60;;;0.60;;
26562;SDS011;14217;50.986;5.826;2022-07-29T05:31:56;1.40;;;0.65;;
26562;SDS011;14217;50.986;5.826;2022-07-29T05:36:58;1.38;;;0.60;;
26562;SDS011;14217;50.986;5.826;2022-07-29T05:42:00;1.13;;;0.77;;
26562;SDS011;14217;50.986;5.826;2022-07-29T05:47:03;7.38;;;0.73;;
26562;SDS011;14217;50.986;5.826;2022-07-29T05:52:05;1.17;;;0.60;;
26562;SDS011;14217;50.986;5.826;2022-07-29T05:57:07;2.13;;;0.80;;
26562;SDS011;14217;50.986;5.826;2022-07-29T06:02:09;11.63;;;0.77;;
26562;SDS011;14217;50.986;5.826;2022-07-29T06:07:12;1.67;;;1.05;;
26562;SDS011;14217;50.986;5.826;2022-07-29T06:12:15;1.58;;;0.60;;
26562;SDS011;14217;50.986;5.826;2022-07-29T06:17:17;13.80;;;1.40;;
26562;SDS011;14217;50.986;5.826;2022-07-29T06:22:19;6.88;;;1.27;;
26562;SDS011;14217;50.986;5.826;2022-07-29T06:27:20;7.10;;;1.10;;
26562;SDS011;14217;50.986;5.826;2022-07-29T06:32:23;4.28;;;1.00;;
26562;SDS011;14217;50.986;5.826;2022-07-29T06:37:27;3.33;;;0.70;;
26562;SDS011;14217;50.986;5.826;2022-07-29T06:42:32;3.38;;;0.98;;
26562;SDS011;14217;50.986;5.826;2022-07-29T06:47:34;4.50;;;1.42;;
26562;SDS011;14217;50.986;5.826;2022-07-29T06:52:36;4.32;;;0.70;;
26562;SDS011;14217;50.986;5.826;2022-07-29T06:57:38;1.88;;;0.75;;
26562;SDS011;14217;50.986;5.826;2022-07-29T07:02:40;11.68;;;0.93;;
26562;SDS011;14217;50.986;5.826;2022-07-29T07:07:42;1.40;;;0.73;;
26562;SDS011;14217;50.986;5.826;2022-07-29T07:12:44;3.67;;;1.85;;
26562;SDS011;14217;50.986;5.826;2022-07-29T07:17:46;1.02;;;0.55;;
26562;SDS011;14217;50.986;5.826;2022-07-29T07:22:48;10.85;;;1.15;;
26562;SDS011;14217;50.986;5.826;2022-07-29T07:27:50;7.75;;;1.38;;
26562;SDS011;14217;50.986;5.826;2022-07-29T07:32:52;4.18;;;1.42;;
26562;SDS011;14217;50.986;5.826;2022-07-29T07:37:55;3.88;;;1.30;;
26562;SDS011;14217;50.986;5.826;2022-07-29T07:42:57;7.40;;;1.60;;
26562;SDS011;14217;50.986;5.826;2022-07-29T07:47:59;3.25;;;1.48;;
26562;SDS011;14217;50.986;5.826;2022-07-29T07:53:01;10.85;;;1.20;;
26562;SDS011;14217;50.986;5.826;2022-07-29T07:58:03;2.78;;;1.48;;
26562;SDS011;14217;50.986;5.826;2022-07-29T08:03:05;3.13;;;1.02;;
26562;SDS011;14217;50.986;5.826;2022-07-29T08:08:17;6.90;;;1.05;;
26562;SDS011;14217;50.986;5.826;2022-07-29T08:13:20;4.07;;;1.48;;
26562;SDS011;14217;50.986;5.826;2022-07-29T08:18:27;6.85;;;1.50;;
26562;SDS011;14217;50.986;5.826;2022-07-29T08:23:30;9.77;;;1.35;;
26562;SDS011;14217;50.986;5.826;2022-07-29T08:28:54;2.63;;;1.00;;
26562;SDS011;14217;50.986;5.826;2022-07-29T08:33:56;5.55;;;1.10;;
26562;SDS011;14217;50.986;5.826;2022-07-29T08:39:01;6.57;;;0.85;;
26562;SDS011;14217;50.986;5.826;2022-07-29T08:44:04;2.90;;;1.15;;
26562;SDS011;14217;50.986;5.826;2022-07-29T08:49:06;4.90;;;1.48;;
26562;SDS011;14217;50.986;5.826;2022-07-29T08:54:09;2.75;;;1.35;;
26562;SDS011;14217;50.986;5.826;2022-07-29T08:59:11;3.28;;;1.10;;
26562;SDS011;14217;50.986;5.826;2022-07-29T09:04:15;2.78;;;1.25;;
26562;SDS011;14217;50.986;5.826;2022-07-29T09:09:19;3.30;;;0.80;;
26562;SDS011;14217;50.986;5.826;2022-07-29T09:14:21;1.80;;;0.82;;
26562;SDS011;14217;50.986;5.826;2022-07-29T09:29:36;6.85;;;1.10;;
26562;SDS011;14217;50.986;5.826;2022-07-29T09:34:39;14.23;;;1.27;;
26562;SDS011;14217;50.986;5.826;2022-07-29T09:39:40;4.40;;;1.42;;
26562;SDS011;14217;50.986;5.826;2022-07-29T09:44:48;5.68;;;1.48;;
26562;SDS011;14217;50.986;5.826;2022-07-29T09:49:57;6.60;;;1.10;;
26562;SDS011;14217;50.986;5.826;2022-07-29T09:55:05;1.35;;;0.63;;
26562;SDS011;14217;50.986;5.826;2022-07-29T10:00:09;4.72;;;0.80;;
26562;SDS011;14217;50.986;5.826;2022-07-29T10:05:24;11.35;;;1.35;;
26562;SDS011;14217;50.986;5.826;2022-07-29T10:10:38;4.88;;;1.23;;
26562;SDS011;14217;50.986;5.826;2022-07-29T10:15:41;5.20;;;1.38;;
26562;SDS011;14217;50.986;5.826;2022-07-29T10:20:47;11.20;;;1.25;;
26562;SDS011;14217;50.986;5.826;2022-07-29T10:25:49;2.08;;;1.23;;
26562;SDS011;14217;50.986;5.826;2022-07-29T10:30:52;2.00;;;0.88;;
26562;SDS011;14217;50.986;5.826;2022-07-29T10:46:37;2.70;;;1.00;;
26562;SDS011;14217;50.986;5.826;2022-07-29T10:52:03;3.42;;;1.52;;
26562;SDS011;14217;50.986;5.826;2022-07-29T11:02:49;1.98;;;0.55;;
26562;SDS011;14217;50.986;5.826;2022-07-29T11:24:15;1.38;;;0.82;;
26562;SDS011;14217;50.986;5.826;2022-07-29T11:29:28;5.10;;;0.75;;
26562;SDS011;14217;50.986;5.826;2022-07-29T11:34:40;1.80;;;0.85;;
26562;SDS011;14217;50.986;5.826;2022-07-29T11:39:47;1.50;;;1.02;;
26562;SDS011;14217;50.986;5.826;2022-07-29T11:44:58;4.20;;;1.25;;
26562;SDS011;14217;50.986;5.826;2022-07-29T11:50:35;1.73;;;1.00;;
26562;SDS011;14217;50.986;5.826;2022-07-29T11:55:44;1.30;;;1.02;;
26562;SDS011;14217;50.986;5.826;2022-07-29T12:00:52;1.95;;;0.95;;
26562;SDS011;14217;50.986;5.826;2022-07-29T12:05:56;3.00;;;0.95;;
26562;SDS011;14217;50.986;5.826;2022-07-29T12:10:58;2.10;;;1.00;;
26562;SDS011;14217;50.986;5.826;2022-07-29T12:16:02;0.88;;;0.70;;
26562;SDS011;14217;50.986;5.826;2022-07-29T12:21:04;2.20;;;0.85;;
26562;SDS011;14217;50.986;5.826;2022-07-29T12:26:06;1.75;;;0.80;;
26562;SDS011;14217;50.986;5.826;2022-07-29T12:31:25;4.05;;;0.98;;
26562;SDS011;14217;50.986;5.826;2022-07-29T12:36:45;2.63;;;0.70;;
26562;SDS011;14217;50.986;5.826;2022-07-29T12:41:47;3.28;;;0.93;;
26562;SDS011;14217;50.986;5.826;2022-07-29T12:47:02;3.67;;;1.05;;
26562;SDS011;14217;50.986;5.826;2022-07-29T12:57:26;2.70;;;0.80;;
26562;SDS011;14217;50.986;5.826;2022-07-29T13:02:28;1.48;;;0.90;;
26562;SDS011;14217;50.986;5.826;2022-07-29T13:07:31;2.90;;;1.08;;
26562;SDS011;14217;50.986;5.826;2022-07-29T13:13:06;2.53;;;1.00;;
26562;SDS011;14217;50.986;5.826;2022-07-29T13:23:32;0.40;;;0.40;;
26562;SDS011;14217;50.986;5.826;2022-07-29T13:28:38;2.00;;;0.63;;
26562;SDS011;14217;50.986;5.826;2022-07-29T13:33:44;2.03;;;0.82;;
26562;SDS011;14217;50.986;5.826;2022-07-29T13:38:46;2.17;;;1.15;;
26562;SDS011;14217;50.986;5.826;2022-07-29T13:43:48;2.78;;;0.80;;
26562;SDS011;14217;50.986;5.826;2022-07-29T13:48:50;1.90;;;0.80;;
26562;SDS011;14217;50.986;5.826;2022-07-29T13:53:52;0.82;;;0.77;;
26562;SDS011;14217;50.986;5.826;2022-07-29T13:58:54;1.02;;;0.77;;
26562;SDS011;14217;50.986;5.826;2022-07-29T14:03:56;8.02;;;0.80;;
26562;SDS011;14217;50.986;5.826;2022-07-29T14:08:58;0.80;;;0.80;;
26562;SDS011;14217;50.986;5.826;2022-07-29T14:14:00;6.00;;;0.77;;
26562;SDS011;14217;50.986;5.826;2022-07-29T14:19:02;0.95;;;0.60;;
26562;SDS011;14217;50.986;5.826;2022-07-29T14:24:05;0.70;;;0.70;;
26562;SDS011;14217;50.986;5.826;2022-07-29T14:29:18;0.63;;;0.60;;
26562;SDS011;14217;50.986;5.826;2022-07-29T14:34:20;1.17;;;0.95;;
26562;SDS011;14217;50.986;5.826;2022-07-29T14:39:22;1.83;;;0.85;;
26562;SDS011;14217;50.986;5.826;2022-07-29T14:44:32;2.25;;;0.80;;
26562;SDS011;14217;50.986;5.826;2022-07-29T14:49:34;1.63;;;0.80;;
26562;SDS011;14217;50.986;5.826;2022-07-29T14:54:36;1.23;;;0.60;;
26562;SDS011;14217;50.986;5.826;2022-07-29T14:59:38;1.58;;;0.90;;
26562;SDS011;14217;50.986;5.826;2022-07-29T15:04:40;1.52;;;0.88;;
26562;SDS011;14217;50.986;5.826;2022-07-29T15:09:42;0.93;;;0.70;;
26562;SDS011;14217;50.986;5.826;2022-07-29T15:14:50;1.50;;;0.90;;
26562;SDS011;14217;50.986;5.826;2022-07-29T15:19:52;3.75;;;0.70;;
26562;SDS011;14217;50.986;5.826;2022-07-29T15:24:54;0.98;;;0.73;;
26562;SDS011;14217;50.986;5.826;2022-07-29T15:29:56;3.08;;;0.80;;
26562;SDS011;14217;50.986;5.826;2022-07-29T15:34:58;0.80;;;0.65;;
26562;SDS011;14217;50.986;5.826;2022-07-29T15:40:00;0.60;;;0.60;;
26562;SDS011;14217;50.986;5.826;2022-07-29T15:45:02;2.53;;;0.88;;
26562;SDS011;14217;50.986;5.826;2022-07-29T15:50:05;1.63;;;1.02;;
26562;SDS011;14217;50.986;5.826;2022-07-29T15:55:13;1.08;;;0.98;;
26562;SDS011;14217;50.986;5.826;2022-07-29T16:00:16;2.17;;;0.73;;
26562;SDS011;14217;50.986;5.826;2022-07-29T16:05:18;0.75;;;0.55;;
26562;SDS011;14217;50.986;5.826;2022-07-29T16:10:20;0.52;;;0.52;;
26562;SDS011;14217;50.986;5.826;2022-07-29T16:15:21;2.80;;;0.60;;
26562;SDS011;14217;50.986;5.826;2022-07-29T16:20:23;1.00;;;1.00;;
26562;SDS011;14217;50.986;5.826;2022-07-29T16:25:26;4.15;;;0.80;;
26562;SDS011;14217;50.986;5.826;2022-07-29T16:30:48;2.28;;;1.17;;
26562;SDS011;14217;50.986;5.826;2022-07-29T16:35:51;1.50;;;0.90;;
26562;SDS011;14217;50.986;5.826;2022-07-29T16:40:53;1.27;;;1.02;;
26562;SDS011;14217;50.986;5.826;2022-07-29T16:45:55;1.13;;;0.73;;
26562;SDS011;14217;50.986;5.826;2022-07-29T16:50:57;4.00;;;1.00;;
26562;SDS011;14217;50.986;5.826;2022-07-29T16:55:59;3.13;;;1.23;;
26562;SDS011;14217;50.986;5.826;2022-07-29T17:01:01;2.47;;;0.60;;
26562;SDS011;14217;50.986;5.826;2022-07-29T17:06:04;1.30;;;0.70;;
26562;SDS011;14217;50.986;5.826;2022-07-29T17:11:09;0.70;;;0.70;;
26562;SDS011;14217;50.986;5.826;2022-07-29T17:16:11;2.88;;;1.63;;
26562;SDS011;14217;50.986;5.826;2022-07-29T17:21:14;3.85;;;1.50;;
26562;SDS011;14217;50.986;5.826;2022-07-29T17:26:17;2.55;;;1.08;;
26562;SDS011;14217;50.986;5.826;2022-07-29T17:31:19;2.45;;;1.02;;
26562;SDS011;14217;50.986;5.826;2022-07-29T17:36:21;4.15;;;1.08;;
26562;SDS011;14217;50.986;5.826;2022-07-29T17:41:27;1.45;;;0.90;;
26562;SDS011;14217;50.986;5.826;2022-07-29T17:46:29;1.85;;;0.60;;
26562;SDS011;14217;50.986;5.826;2022-07-29T17:51:31;0.70;;;0.65;;
26562;SDS011;14217;50.986;5.826;2022-07-29T17:56:33;2.72;;;0.90;;
26562;SDS011;14217;50.986;5.826;2022-07-29T18:01:35;3.50;;;1.00;;
26562;SDS011;14217;50.986;5.826;2022-07-29T18:06:38;1.88;;;1.17;;
26562;SDS011;14217;50.986;5.826;2022-07-29T18:11:40;2.45;;;1.23;;
26562;SDS011;14217;50.986;5.826;2022-07-29T18:16:46;2.65;;;1.02;;
26562;SDS011;14217;50.986;5.826;2022-07-29T18:21:48;3.55;;;1.45;;
26562;SDS011;14217;50.986;5.826;2022-07-29T18:26:56;2.17;;;1.20;;
26562;SDS011;14217;50.986;5.826;2022-07-29T18:31:59;3.08;;;1.23;;
26562;SDS011;14217;50.986;5.826;2022-07-29T18:37:01;1.20;;;0.90;;
26562;SDS011;14217;50.986;5.826;2022-07-29T18:42:04;1.88;;;0.90;;
26562;SDS011;14217;50.986;5.826;2022-07-29T18:47:06;1.52;;;1.27;;
26562;SDS011;14217;50.986;5.826;2022-07-29T18:52:12;2.15;;;0.90;;
26562;SDS011;14217;50.986;5.826;2022-07-29T18:57:14;0.70;;;0.65;;
26562;SDS011;14217;50.986;5.826;2022-07-29T19:02:36;1.23;;;0.60;;
26562;SDS011;14217;50.986;5.826;2022-07-29T19:07:42;3.05;;;1.10;;
26562;SDS011;14217;50.986;5.826;2022-07-29T19:12:44;2.15;;;1.05;;
26562;SDS011;14217;50.986;5.826;2022-07-29T19:17:47;4.32;;;1.13;;
26562;SDS011;14217;50.986;5.826;2022-07-29T19:22:49;1.55;;;1.40;;
26562;SDS011;14217;50.986;5.826;2022-07-29T19:27:51;0.73;;;0.60;;
26562;SDS011;14217;50.986;5.826;2022-07-29T19:32:53;2.17;;;0.80;;
26562;SDS011;14217;50.986;5.826;2022-07-29T19:37:55;1.88;;;0.90;;
26562;SDS011;14217;50.986;5.826;2022-07-29T19:42:59;1.20;;;0.90;;
26562;SDS011;14217;50.986;5.826;2022-07-29T19:48:01;2.15;;;0.88;;
26562;SDS011;14217;50.986;5.826;2022-07-29T19:53:05;1.85;;;0.73;;
26562;SDS011;14217;50.986;5.826;2022-07-29T19:58:07;2.20;;;1.17;;
26562;SDS011;14217;50.986;5.826;2022-07-29T20:03:09;5.93;;;1.00;;
26562;SDS011;14217;50.986;5.826;2022-07-29T20:08:11;1.98;;;0.90;;
26562;SDS011;14217;50.986;5.826;2022-07-29T20:13:13;1.48;;;0.68;;
26562;SDS011;14217;50.986;5.826;2022-07-29T20:18:15;8.20;;;1.15;;
26562;SDS011;14217;50.986;5.826;2022-07-29T20:23:17;2.60;;;0.85;;
26562;SDS011;14217;50.986;5.826;2022-07-29T20:28:19;1.80;;;0.68;;
26562;SDS011;14217;50.986;5.826;2022-07-29T20:33:22;2.80;;;0.88;;
26562;SDS011;14217;50.986;5.826;2022-07-29T20:38:24;2.08;;;0.75;;
26562;SDS011;14217;50.986;5.826;2022-07-29T20:43:25;1.20;;;0.65;;
26562;SDS011;14217;50.986;5.826;2022-07-29T20:48:28;0.95;;;0.70;;
26562;SDS011;14217;50.986;5.826;2022-07-29T20:53:30;2.38;;;0.98;;
26562;SDS011;14217;50.986;5.826;2022-07-29T20:58:33;1.63;;;0.80;;
26562;SDS011;14217;50.986;5.826;2022-07-29T21:03:36;3.03;;;1.08;;
26562;SDS011;14217;50.986;5.826;2022-07-29T21:08:38;2.08;;;0.75;;
26562;SDS011;14217;50.986;5.826;2022-07-29T21:13:41;1.58;;;0.70;;
26562;SDS011;14217;50.986;5.826;2022-07-29T21:18:45;0.80;;;0.47;;
26562;SDS011;14217;50.986;5.826;2022-07-29T21:23:47;1.17;;;0.90;;
26562;SDS011;14217;50.986;5.826;2022-07-29T21:28:49;1.98;;;0.65;;
26562;SDS011;14217;50.986;5.826;2022-07-29T21:33:52;1.15;;;0.95;;
26562;SDS011;14217;50.986;5.826;2022-07-29T21:38:54;2.08;;;0.95;;
26562;SDS011;14217;50.986;5.826;2022-07-29T21:43:57;2.55;;;1.17;;
26562;SDS011;14217;50.986;5.826;2022-07-29T21:49:01;2.00;;;0.70;;
26562;SDS011;14217;50.986;5.826;2022-07-29T21:54:03;1.85;;;0.77;;
26562;SDS011;14217;50.986;5.826;2022-07-29T21:59:06;6.38;;;0.90;;
26562;SDS011;14217;50.986;5.826;2022-07-29T22:04:12;3.00;;;0.70;;
26562;SDS011;14217;50.986;5.826;2022-07-29T22:09:15;2.22;;;0.85;;
26562;SDS011;14217;50.986;5.826;2022-07-29T22:14:16;1.30;;;1.15;;
26562;SDS011;14217;50.986;5.826;2022-07-29T22:19:19;5.10;;;0.90;;
26562;SDS011;14217;50.986;5.826;2022-07-29T22:24:21;1.08;;;0.57;;
26562;SDS011;14217;50.986;5.826;2022-07-29T22:29:23;7.05;;;1.33;;
26562;SDS011;14217;50.986;5.826;2022-07-29T22:34:27;2.53;;;1.20;;
26562;SDS011;14217;50.986;5.826;2022-07-29T22:39:32;2.20;;;1.20;;
26562;SDS011;14217;50.986;5.826;2022-07-29T22:44:35;2.95;;;1.20;;
26562;SDS011;14217;50.986;5.826;2022-07-29T22:49:37;1.00;;;0.60;;
26562;SDS011;14217;50.986;5.826;2022-07-29T22:54:39;2.88;;;0.80;;
26562;SDS011;14217;50.986;5.826;2022-07-29T22:59:41;6.25;;;1.08;;
26562;SDS011;14217;50.986;5.826;2022-07-29T23:04:43;0.80;;;0.80;;
26562;SDS011;14217;50.986;5.826;2022-07-29T23:09:45;3.50;;;0.93;;
26562;SDS011;14217;50.986;5.826;2022-07-29T23:14:47;4.07;;;1.08;;
26562;SDS011;14217;50.986;5.826;2022-07-29T23:19:49;1.85;;;1.00;;
26562;SDS011;14217;50.986;5.826;2022-07-29T23:24:51;1.42;;;0.93;;
26562;SDS011;14217;50.986;5.826;2022-07-29T23:29:53;5.68;;;0.88;;
26562;SDS011;14217;50.986;5.826;2022-07-29T23:34:55;3.08;;;0.80;;
26562;SDS011;14217;50.986;5.826;2022-07-29T23:39:58;2.92;;;0.77;;
26562;SDS011;14217;50.986;5.826;2022-07-29T23:45:00;2.47;;;0.70;;
26562;SDS011;14217;50.986;5.826;2022-07-29T23:50:03;2.35;;;0.90;;
26562;SDS011;14217;50.986;5.826;2022-07-29T23:55:06;1.88;;;1.00;;
